createdAt,value
2023-03-21T00:01:54.462Z,64.18
2023-03-21T00:04:26.529Z,63.97
2023-03-21T00:06:54.501Z,64.43
2023-03-21T00:09:21.814Z,63.86
2023-03-21T00:11:48.516Z,64.41
2023-03-21T00:14:18.992Z,64.05
2023-03-21T00:16:50.741Z,63.90
2023-03-21T00:19:20.950Z,64.00
2023-03-21T00:22:05.449Z,63.84
2023-03-21T00:24:32.949Z,63.95
2023-03-21T00:27:15.871Z,63.59
2023-03-21T00:29:50.993Z,63.86
2023-03-21T00:32:22.299Z,63.97
2023-03-21T00:35:40.759Z,63.86
2023-03-21T00:37:37.317Z,63.75
2023-03-21T00:40:23.030Z,63.58
2023-03-21T00:42:52.637Z,63.97
2023-03-21T00:45:19.481Z,63.79
2023-03-21T00:47:46.220Z,63.81
2023-03-21T00:50:13.135Z,63.71
2023-03-21T00:52:41.314Z,63.62
2023-03-21T00:55:14.681Z,63.78
2023-03-21T00:57:43.594Z,63.56
2023-03-21T01:00:12.902Z,63.59
2023-03-21T01:03:14.217Z,63.81
2023-03-21T01:06:04.892Z,63.93
2023-03-21T01:08:52.377Z,63.92
2023-03-21T01:11:23.330Z,63.90
2023-03-21T01:13:56.249Z,63.88
2023-03-21T01:16:28.870Z,63.84
2023-03-21T01:18:56.367Z,63.86
2023-03-21T01:21:23.294Z,63.56
2023-03-21T01:23:49.916Z,63.73
2023-03-21T01:26:16.933Z,63.61
2023-03-21T01:28:45.510Z,63.67
2023-03-21T01:31:16.154Z,63.45
2023-03-21T01:33:43.736Z,63.58
2023-03-21T01:36:25.128Z,63.74
2023-03-21T01:38:57.141Z,63.77
2023-03-21T01:41:41.627Z,63.70
2023-03-21T01:44:18.681Z,63.73
2023-03-21T01:49:50.282Z,63.94
2023-03-21T01:52:37.108Z,63.96
2023-03-21T01:55:12.520Z,64.03
2023-03-21T01:58:09.527Z,64.02
2023-03-21T02:01:00.197Z,63.89
2023-03-21T02:03:50.545Z,63.68
2023-03-21T02:06:40.863Z,63.61
2023-03-21T02:09:22.659Z,63.68
2023-03-21T02:11:49.638Z,63.65
2023-03-21T02:14:28.278Z,63.60
2023-03-21T02:17:10.390Z,63.70
2023-03-21T02:20:29.970Z,63.67
2023-03-21T02:23:25.738Z,63.67
2023-03-21T02:26:10.569Z,63.53
2023-03-21T02:28:48.110Z,63.66
2023-03-21T02:31:26.779Z,63.73
2023-03-21T02:34:24.513Z,63.60
2023-03-21T02:37:03.401Z,63.59
2023-03-21T02:39:40.715Z,63.74
2023-03-21T02:42:22.409Z,63.97
2023-03-21T02:44:57.329Z,64.00
2023-03-21T02:47:36.196Z,63.91
2023-03-21T02:50:15.957Z,63.71
2023-03-21T02:52:47.896Z,63.62
2023-03-21T02:55:20.358Z,63.52
2023-03-21T02:57:56.387Z,63.56
2023-03-21T03:00:29.734Z,63.53
2023-03-21T03:03:08.772Z,63.21
2023-03-21T03:05:44.045Z,63.21
2023-03-21T03:08:36.132Z,63.29
2023-03-21T03:11:18.845Z,63.21
2023-03-21T03:14:31.530Z,63.30
2023-03-21T03:17:02.813Z,63.28
2023-03-21T03:19:36.579Z,63.41
2023-03-21T03:22:27.921Z,63.50
2023-03-21T03:25:18.676Z,63.43
2023-03-21T03:27:55.003Z,63.62
2023-03-21T03:30:29.633Z,63.77
2023-03-21T03:33:03.314Z,63.73
2023-03-21T03:35:30.526Z,63.78
2023-03-21T03:38:02.816Z,63.66
2023-03-21T03:40:49.798Z,63.57
2023-03-21T03:43:51.048Z,63.36
2023-03-21T03:46:19.968Z,63.63
2023-03-21T03:48:56.067Z,63.77
2023-03-21T03:51:36.366Z,63.75
2023-03-21T03:54:30.832Z,63.77
2023-03-21T03:57:01.606Z,64.03
2023-03-21T03:59:28.477Z,64.08
2023-03-21T04:02:11.021Z,63.97
2023-03-21T04:04:38.426Z,63.74
2023-03-21T04:07:06.515Z,63.59
2023-03-21T04:09:43.618Z,63.60
2023-03-21T04:12:13.654Z,63.53
2023-03-21T04:14:45.802Z,63.67
2023-03-21T04:17:15.973Z,63.96
2023-03-21T04:19:42.856Z,63.94
2023-03-21T04:22:09.532Z,63.90
2023-03-21T04:24:40.037Z,64.26
2023-03-21T04:27:06.784Z,63.91
2023-03-21T04:29:42.589Z,63.83
2023-03-21T04:32:25.733Z,63.99
2023-03-21T04:35:01.166Z,63.88
2023-03-21T04:37:28.123Z,63.76
2023-03-21T04:39:55.212Z,63.80
2023-03-21T04:42:22.353Z,63.97
2023-03-21T04:44:49.578Z,63.85
2023-03-21T04:47:17.205Z,63.89
2023-03-21T04:49:43.865Z,64.07
2023-03-21T04:52:11.767Z,64.09
2023-03-21T04:54:38.974Z,63.81
2023-03-21T04:57:05.920Z,64.10
2023-03-21T04:59:32.601Z,63.91
2023-03-21T05:01:59.293Z,64.04
2023-03-21T05:04:27.429Z,64.28
2023-03-21T05:06:56.357Z,64.18
2023-03-21T05:09:23.300Z,64.21
2023-03-21T05:11:50.963Z,64.45
2023-03-21T05:14:22.233Z,64.28
2023-03-21T05:16:53.605Z,64.17
2023-03-21T05:19:34.877Z,63.96
2023-03-21T05:22:08.183Z,63.76
2023-03-21T05:24:39.269Z,63.91
2023-03-21T05:27:06.819Z,63.78
2023-03-21T05:29:39.560Z,64.17
2023-03-21T05:32:07.308Z,64.05
2023-03-21T05:34:34.015Z,64.06
2023-03-21T05:37:01.433Z,64.31
2023-03-21T05:39:38.422Z,64.27
2023-03-21T05:42:10.500Z,64.21
2023-03-21T05:44:40.358Z,64.22
2023-03-21T05:47:08.414Z,64.42
2023-03-21T05:49:39.538Z,64.32
2023-03-21T05:52:06.534Z,64.23
2023-03-21T05:54:33.397Z,64.47
2023-03-21T05:57:00.921Z,64.27
2023-03-21T05:59:47.842Z,63.70
2023-03-21T06:02:14.963Z,63.43
2023-03-21T06:04:41.760Z,63.09
2023-03-21T06:07:08.533Z,62.70
2023-03-21T06:09:38.291Z,62.38
2023-03-21T06:12:05.046Z,62.05
2023-03-21T06:14:38.982Z,61.92
2023-03-21T06:17:25.903Z,61.86
2023-03-21T06:19:56.295Z,61.76
2023-03-21T06:22:29.738Z,61.77
2023-03-21T06:24:56.583Z,61.69
2023-03-21T06:27:23.350Z,61.67
2023-03-21T06:29:53.127Z,61.93
2023-03-21T06:32:20.342Z,61.69
2023-03-21T06:34:48.652Z,61.66
2023-03-21T06:37:15.390Z,61.66
2023-03-21T06:39:42.575Z,61.64
2023-03-21T06:42:09.377Z,61.85
2023-03-21T06:44:36.985Z,61.76
2023-03-21T06:47:06.829Z,61.93
2023-03-21T06:49:34.561Z,61.67
2023-03-21T06:52:06.836Z,61.70
2023-03-21T06:54:33.955Z,61.78
2023-03-21T06:57:05.667Z,61.49
2023-03-21T06:59:37.313Z,61.59
2023-03-21T07:02:07.519Z,61.38
2023-03-21T07:04:38.856Z,61.25
2023-03-21T07:07:06.601Z,61.00
2023-03-21T07:09:33.336Z,61.07
2023-03-21T07:12:03.800Z,60.71
2023-03-21T07:14:42.005Z,60.63
2023-03-21T07:17:08.665Z,61.01
2023-03-21T07:19:35.642Z,60.94
2023-03-21T07:22:02.343Z,60.95
2023-03-21T07:24:29.038Z,60.78
2023-03-21T07:26:56.407Z,60.82
2023-03-21T07:29:23.503Z,60.92
2023-03-21T07:31:50.508Z,60.99
2023-03-21T07:34:17.929Z,61.35
2023-03-21T07:36:45.284Z,61.27
2023-03-21T07:39:12.805Z,61.32
2023-03-21T07:41:39.470Z,61.60
2023-03-21T07:44:23.536Z,61.09
2023-03-21T07:47:00.406Z,60.79
2023-03-21T07:49:27.504Z,60.59
2023-03-21T07:51:54.354Z,60.54
2023-03-21T07:54:22.976Z,60.06
2023-03-21T07:56:49.957Z,60.22
2023-03-21T07:59:16.592Z,60.08
2023-03-21T08:01:43.373Z,59.96
2023-03-21T08:04:10.123Z,59.89
2023-03-21T08:06:36.823Z,59.63
2023-03-21T08:09:04.115Z,59.45
2023-03-21T08:11:34.323Z,59.36
2023-03-21T08:14:01.793Z,59.10
2023-03-21T08:16:28.583Z,59.18
2023-03-21T08:18:55.228Z,59.12
2023-03-21T08:21:21.869Z,58.87
2023-03-21T08:23:48.510Z,58.65
2023-03-21T08:26:18.449Z,58.68
2023-03-21T08:28:46.344Z,58.64
2023-03-21T08:31:15.043Z,58.49
2023-03-21T08:33:41.749Z,58.50
2023-03-21T08:36:09.149Z,58.09
2023-03-21T08:38:36.319Z,58.08
2023-03-21T08:41:03.559Z,57.98
2023-03-21T08:43:30.654Z,57.59
2023-03-21T08:45:57.375Z,57.54
2023-03-21T08:48:25.436Z,57.48
2023-03-21T08:50:52.173Z,57.53
2023-03-21T08:53:18.945Z,57.47
2023-03-21T08:55:45.873Z,57.41
2023-03-21T08:58:12.541Z,57.43
2023-03-21T09:00:39.271Z,57.16
2023-03-21T09:03:05.870Z,56.82
2023-03-21T09:05:33.060Z,56.76
2023-03-21T09:08:01.710Z,56.24
2023-03-21T09:10:28.401Z,56.06
2023-03-21T09:12:56.270Z,56.21
2023-03-21T09:15:29.921Z,55.79
2023-03-21T09:17:58.916Z,55.89
2023-03-21T09:20:31.384Z,55.67
2023-03-21T09:22:59.898Z,55.39
2023-03-21T09:25:31.707Z,55.27
2023-03-21T09:28:04.787Z,55.36
2023-03-21T09:30:33.764Z,55.84
2023-03-21T09:33:02.180Z,55.61
2023-03-21T09:35:29.742Z,55.52
2023-03-21T09:37:59.048Z,55.02
2023-03-21T09:40:41.090Z,54.91
2023-03-21T09:43:18.054Z,54.70
2023-03-21T09:45:59.857Z,54.42
2023-03-21T09:48:57.048Z,54.19
2023-03-21T09:51:31.347Z,54.32
2023-03-21T09:54:07.522Z,53.42
2023-03-21T09:56:37.848Z,53.51
2023-03-21T09:59:07.405Z,53.48
2023-03-21T10:01:41.834Z,52.81
2023-03-21T10:04:12.937Z,52.21
2023-03-21T10:06:42.884Z,51.66
2023-03-21T10:09:12.649Z,50.79
2023-03-21T10:11:53.292Z,50.98
2023-03-21T10:14:31.610Z,50.81
2023-03-21T10:17:04.248Z,50.42
2023-03-21T10:19:30.988Z,50.05
2023-03-21T10:22:03.010Z,50.15
2023-03-21T10:24:33.321Z,49.74
2023-03-21T10:27:02.673Z,49.61
2023-03-21T10:29:37.230Z,49.53
2023-03-21T10:32:04.340Z,49.68
2023-03-21T10:34:41.781Z,49.91
2023-03-21T10:37:08.806Z,50.08
2023-03-21T10:39:44.240Z,50.30
2023-03-21T10:42:32.962Z,50.38
2023-03-21T10:44:59.702Z,50.11
2023-03-21T10:47:27.736Z,50.43
2023-03-21T10:50:07.207Z,50.98
2023-03-21T10:52:36.719Z,50.56
2023-03-21T10:55:18.751Z,49.66
2023-03-21T10:57:47.932Z,49.63
2023-03-21T11:00:23.106Z,50.45
2023-03-21T11:02:53.139Z,50.22
2023-03-21T11:05:40.375Z,49.37
2023-03-21T11:08:13.966Z,49.01
2023-03-21T11:11:06.453Z,49.41
2023-03-21T11:13:38.067Z,49.03
2023-03-21T11:16:11.103Z,49.21
2023-03-21T11:18:44.317Z,49.39
2023-03-21T11:21:13.566Z,49.58
2023-03-21T11:23:48.247Z,49.27
2023-03-21T11:26:36.861Z,49.05
2023-03-21T11:29:16.924Z,48.96
2023-03-21T11:31:44.942Z,49.14
2023-03-21T11:34:27.118Z,49.07
2023-03-21T11:36:59.039Z,48.74
2023-03-21T11:39:29.212Z,48.04
2023-03-21T11:41:56.212Z,48.66
2023-03-21T11:44:29.728Z,47.63
2023-03-21T11:46:56.859Z,46.94
2023-03-21T11:49:24.623Z,46.71
2023-03-21T11:52:13.510Z,46.85
2023-03-21T11:54:49.388Z,46.95
2023-03-21T11:57:45.604Z,46.54
2023-03-21T12:00:22.815Z,46.05
2023-03-21T12:02:57.252Z,45.57
2023-03-21T12:05:27.670Z,44.03
2023-03-21T12:08:12.837Z,43.10
2023-03-21T12:10:55.257Z,42.69
2023-03-21T12:13:40.981Z,44.06
2023-03-21T12:16:26.298Z,43.68
2023-03-21T12:19:49.027Z,41.91
2023-03-21T12:22:34.219Z,42.78
2023-03-21T12:25:12.272Z,42.55
2023-03-21T12:27:44.798Z,41.17
2023-03-21T12:30:34.845Z,41.17
2023-03-21T12:33:26.201Z,40.68
2023-03-21T12:36:30.385Z,42.26
2023-03-21T12:39:16.396Z,41.66
2023-03-21T12:42:03.011Z,40.91
2023-03-21T12:44:34.238Z,39.99
2023-03-21T12:47:06.978Z,39.78
2023-03-21T12:49:48.517Z,40.50
2023-03-21T12:52:27.039Z,40.49
2023-03-21T12:55:01.898Z,39.53
2023-03-21T12:57:47.812Z,38.75
2023-03-21T13:00:26.148Z,38.98
2023-03-21T13:03:04.301Z,38.48
2023-03-21T13:05:38.958Z,38.63
2023-03-21T13:08:15.767Z,38.53
2023-03-21T13:10:45.381Z,40.05
2023-03-21T13:13:34.077Z,40.29
2023-03-21T13:16:12.669Z,40.04
2023-03-21T13:18:55.777Z,40.73
2023-03-21T13:21:46.894Z,40.29
2023-03-21T13:24:28.142Z,40.67
2023-03-21T13:27:16.513Z,40.80
2023-03-21T13:29:50.579Z,41.94
2023-03-21T13:32:29.857Z,41.30
2023-03-21T13:35:01.483Z,41.08
2023-03-21T13:37:39.050Z,40.80
2023-03-21T13:40:20.251Z,40.59
2023-03-21T13:42:53.726Z,40.70
2023-03-21T13:45:45.084Z,40.64
2023-03-21T13:48:29.784Z,40.72
2023-03-21T13:51:02.274Z,40.92
2023-03-21T13:54:03.597Z,41.92
2023-03-21T13:56:48.026Z,40.89
2023-03-21T13:59:38.410Z,40.81
2023-03-21T14:02:23.536Z,40.96
2023-03-21T14:05:05.384Z,40.92
2023-03-21T14:07:41.601Z,40.57
2023-03-21T14:10:19.449Z,40.76
2023-03-21T14:12:47.547Z,41.07
2023-03-21T14:15:20.781Z,41.15
2023-03-21T14:18:06.471Z,40.99
2023-03-21T14:20:43.819Z,40.86
2023-03-21T14:23:17.458Z,40.96
2023-03-21T14:25:47.813Z,40.86
2023-03-21T14:28:17.559Z,41.20
2023-03-21T14:30:44.934Z,41.99
2023-03-21T14:33:36.714Z,41.10
2023-03-21T14:36:09.010Z,41.34
2023-03-21T14:38:38.654Z,42.23
2023-03-21T14:41:19.942Z,42.37
2023-03-21T14:44:01.604Z,42.61
2023-03-21T14:46:28.325Z,42.10
2023-03-21T14:48:55.070Z,41.45
2023-03-21T14:51:23.768Z,41.44
2023-03-21T14:53:50.487Z,41.97
2023-03-21T14:56:23.722Z,41.54
2023-03-21T14:58:52.198Z,41.31
2023-03-21T15:01:31.181Z,41.41
2023-03-21T15:04:00.760Z,41.23
2023-03-21T15:06:27.565Z,41.73
2023-03-21T15:09:00.864Z,41.95
2023-03-21T15:11:35.186Z,41.59
2023-03-21T15:14:06.022Z,41.39
2023-03-21T15:16:33.763Z,41.51
2023-03-21T15:19:05.338Z,41.55
2023-03-21T15:21:35.136Z,41.75
2023-03-21T15:24:25.333Z,42.43
2023-03-21T15:26:57.199Z,42.45
2023-03-21T15:29:25.028Z,43.41
2023-03-21T15:31:51.743Z,42.70
2023-03-21T15:34:26.404Z,42.39
2023-03-21T15:37:05.632Z,42.13
2023-03-21T15:39:35.462Z,42.15
2023-03-21T15:42:04.179Z,42.90
2023-03-21T15:44:32.528Z,43.29
2023-03-21T15:46:59.454Z,43.10
2023-03-21T15:49:34.462Z,42.46
2023-03-21T15:52:11.400Z,42.82
2023-03-21T15:54:56.975Z,43.26
2023-03-21T15:57:32.826Z,42.72
2023-03-21T16:00:12.108Z,42.75
2023-03-21T16:02:42.488Z,43.03
2023-03-21T16:05:29.354Z,43.15
2023-03-21T16:08:23.120Z,42.61
2023-03-21T16:10:49.818Z,42.58
2023-03-21T16:13:17.523Z,43.85
2023-03-21T16:15:45.398Z,43.11
2023-03-21T16:18:15.927Z,43.53
2023-03-21T16:20:45.270Z,43.35
2023-03-21T16:23:13.422Z,43.36
2023-03-21T16:25:42.091Z,43.48
2023-03-21T16:28:16.517Z,43.21
2023-03-21T16:30:44.292Z,43.64
2023-03-21T16:33:12.494Z,43.46
2023-03-21T16:35:39.918Z,43.37
2023-03-21T16:38:06.915Z,43.37
2023-03-21T16:40:38.947Z,43.55
2023-03-21T16:43:05.722Z,43.41
2023-03-21T16:45:32.837Z,43.66
2023-03-21T16:48:00.756Z,43.80
2023-03-21T16:50:37.949Z,43.94
2023-03-21T16:53:04.728Z,44.14
2023-03-21T16:55:34.879Z,44.27
2023-03-21T16:58:01.777Z,44.27
2023-03-21T17:00:30.860Z,44.34
2023-03-21T17:03:04.519Z,44.51
2023-03-21T17:05:31.232Z,44.54
2023-03-21T17:08:04.261Z,44.58
2023-03-21T17:10:32.834Z,44.82
2023-03-21T17:12:59.948Z,45.08
2023-03-21T17:15:27.165Z,45.12
2023-03-21T17:17:57.945Z,45.47
2023-03-21T17:20:29.227Z,45.46
2023-03-21T17:22:55.978Z,45.62
2023-03-21T17:25:22.852Z,46.16
2023-03-21T17:27:51.728Z,45.85
2023-03-21T17:30:33.791Z,46.01
2023-03-21T17:33:01.152Z,45.91
2023-03-21T17:35:29.075Z,45.98
2023-03-21T17:37:58.659Z,46.19
2023-03-21T17:40:31.166Z,46.52
2023-03-21T17:42:58.472Z,46.72
2023-03-21T17:45:25.644Z,47.30
2023-03-21T17:47:53.287Z,47.45
2023-03-21T17:50:22.697Z,47.76
2023-03-21T17:52:50.881Z,48.00
2023-03-21T17:55:21.942Z,48.14
2023-03-21T17:57:49.603Z,48.62
2023-03-21T18:00:23.957Z,48.70
2023-03-21T18:02:51.883Z,49.21
2023-03-21T18:05:21.323Z,49.47
2023-03-21T18:10:37.152Z,50.74
2023-03-21T18:13:04.036Z,50.54
2023-03-21T18:15:31.183Z,50.26
2023-03-21T18:17:58.740Z,50.14
2023-03-21T18:20:49.981Z,50.47
2023-03-21T18:23:16.062Z,50.49
2023-03-21T18:25:43.102Z,50.51
2023-03-21T18:28:12.159Z,50.49
2023-03-21T18:31:05.300Z,50.59
2023-03-21T18:33:27.643Z,50.85
2023-03-21T18:35:58.956Z,51.00
2023-03-21T18:38:29.185Z,50.81
2023-03-21T18:40:56.818Z,51.05
2023-03-21T18:46:10.974Z,51.17
2023-03-21T18:48:39.397Z,51.02
2023-03-21T18:51:16.195Z,51.07
2023-03-21T18:53:43.154Z,51.32
2023-03-21T18:56:10.666Z,51.14
2023-03-21T18:58:39.132Z,51.42
2023-03-21T19:01:08.387Z,51.66
2023-03-21T19:03:37.477Z,51.58
2023-03-21T19:06:06.578Z,51.55
2023-03-21T19:08:42.222Z,51.40
2023-03-21T19:11:10.261Z,51.69
2023-03-21T19:13:36.879Z,51.33
2023-03-21T19:16:03.840Z,51.69
2023-03-21T19:21:19.225Z,51.64
2023-03-21T19:26:33.727Z,51.86
2023-03-21T19:29:04.569Z,51.74
2023-03-21T19:31:45.425Z,52.09
2023-03-21T19:34:17.132Z,51.99
2023-03-21T19:36:46.023Z,52.16
2023-03-21T19:39:24.537Z,52.08
2023-03-21T19:41:55.267Z,52.01
2023-03-21T19:44:28.321Z,52.05
2023-03-21T19:46:54.941Z,52.03
2023-03-21T19:49:34.580Z,52.06
2023-03-21T19:52:10.456Z,52.04
2023-03-21T19:54:37.654Z,51.97
2023-03-21T19:57:04.592Z,52.33
2023-03-21T19:59:32.210Z,52.26
2023-03-21T20:02:17.999Z,52.30
2023-03-21T20:04:46.336Z,52.57
2023-03-21T20:07:13.309Z,52.37
2023-03-21T20:09:52.353Z,52.32
2023-03-21T20:12:20.213Z,52.37
2023-03-21T20:14:49.104Z,52.65
2023-03-21T20:17:16.618Z,52.61
2023-03-21T20:19:43.454Z,52.50
2023-03-21T20:22:21.772Z,52.49
2023-03-21T20:24:53.793Z,52.52
2023-03-21T20:27:25.146Z,52.46
2023-03-21T20:30:10.141Z,52.52
2023-03-21T20:32:38.566Z,52.58
2023-03-21T20:35:18.812Z,52.49
2023-03-21T20:37:49.879Z,52.64
2023-03-21T20:40:18.698Z,52.54
2023-03-21T20:42:48.555Z,52.63
2023-03-21T20:45:17.240Z,52.87
2023-03-21T20:47:44.413Z,52.84
2023-03-21T20:50:14.243Z,52.89
2023-03-21T20:53:04.823Z,52.89
2023-03-21T20:55:30.873Z,52.91
2023-03-21T20:58:01.934Z,52.98
2023-03-21T21:00:29.836Z,52.89
2023-03-21T21:02:57.916Z,52.94
2023-03-21T21:05:30.744Z,52.94
2023-03-21T21:08:01.750Z,53.03
2023-03-21T21:10:28.822Z,52.96
2023-03-21T21:12:55.655Z,52.98
2023-03-21T21:15:22.480Z,52.99
2023-03-21T21:18:07.069Z,52.96
2023-03-21T21:20:35.395Z,53.22
2023-03-21T21:23:02.183Z,53.12
2023-03-21T21:25:32.443Z,53.12
2023-03-21T21:28:01.765Z,53.12
2023-03-21T21:30:29.599Z,53.23
2023-03-21T21:32:59.589Z,53.28
2023-03-21T21:35:26.950Z,53.33
2023-03-21T21:37:53.667Z,53.31
2023-03-21T21:40:23.454Z,53.50
2023-03-21T21:42:50.337Z,53.33
2023-03-21T21:45:19.343Z,53.57
2023-03-21T21:47:46.720Z,53.51
2023-03-21T21:50:13.769Z,53.45
2023-03-21T21:52:43.856Z,53.57
2023-03-21T21:55:11.061Z,53.94
2023-03-21T21:57:39.832Z,53.79
2023-03-21T22:00:12.961Z,53.89
2023-03-21T22:02:41.692Z,54.01
2023-03-21T22:05:09.428Z,54.16
2023-03-21T22:07:37.768Z,54.25
2023-03-21T22:10:05.411Z,54.25
2023-03-21T22:12:32.525Z,54.43
2023-03-21T22:14:59.278Z,54.46
2023-03-21T22:17:26.390Z,54.51
2023-03-21T22:20:05.088Z,54.66
2023-03-21T22:22:34.263Z,54.61
2023-03-21T22:25:01.130Z,54.63
2023-03-21T22:27:27.899Z,54.66
2023-03-21T22:29:54.837Z,54.79
2023-03-21T22:32:21.611Z,54.82
2023-03-21T22:34:48.398Z,54.78
2023-03-21T22:37:15.562Z,54.92
2023-03-21T22:39:42.472Z,55.04
2023-03-21T22:42:09.138Z,55.00
2023-03-21T22:44:36.108Z,54.98
2023-03-21T22:47:05.412Z,55.14
2023-03-21T22:49:32.919Z,54.96
2023-03-21T22:52:01.290Z,54.91
2023-03-21T22:54:28.059Z,55.02
2023-03-21T22:56:55.526Z,54.88
2023-03-21T22:59:22.809Z,55.00
2023-03-21T23:01:49.685Z,55.08
2023-03-21T23:04:16.994Z,55.18
2023-03-21T23:06:44.315Z,55.03
2023-03-21T23:09:11.236Z,55.29
2023-03-21T23:11:39.056Z,55.17
2023-03-21T23:14:08.449Z,55.44
2023-03-21T23:16:38.490Z,55.24
2023-03-21T23:19:06.246Z,55.38
2023-03-21T23:21:36.663Z,55.43
2023-03-21T23:24:04.397Z,55.41
2023-03-21T23:26:31.228Z,55.51
2023-03-21T23:28:57.880Z,55.45
2023-03-21T23:31:27.150Z,55.54
2023-03-21T23:33:55.084Z,55.46
2023-03-21T23:36:22.651Z,55.62
2023-03-21T23:38:50.435Z,55.58
2023-03-21T23:41:20.049Z,55.61
2023-03-21T23:43:48.017Z,55.85
2023-03-21T23:46:16.322Z,55.78
2023-03-21T23:48:45.108Z,55.77
2023-03-21T23:51:14.545Z,55.71
2023-03-21T23:53:41.317Z,55.77
2023-03-21T23:56:17.172Z,55.92
2023-03-21T23:58:43.983Z,55.77
